sensor_id;sensor_type;location;lat;lon;timestamp;pressure;altitude;pressure_sealevel;temperature;humidity
56330;BME280;42236;48.058;10.632;2023-02-26T00:02:21;93873.09;;;-1.86;91.13
56330;BME280;42236;48.058;10.632;2023-02-26T00:05:08;93859.25;;;-1.78;91.41
56330;BME280;42236;48.058;10.632;2023-02-26T00:07:53;93864.47;;;-1.73;90.94
56330;BME280;42236;48.058;10.632;2023-02-26T00:10:39;93866.09;;;-1.77;90.13
56330;BME280;42236;48.058;10.632;2023-02-26T00:13:25;93863.81;;;-1.83;90.12
56330;BME280;42236;48.058;10.632;2023-02-26T00:16:32;93874.66;;;-1.85;90.10
56330;BME280;42236;48.058;10.632;2023-02-26T00:19:19;93871.13;;;-1.99;89.53
56330;BME280;42236;48.058;10.632;2023-02-26T00:22:05;93874.78;;;-1.95;89.86
56330;BME280;42236;48.058;10.632;2023-02-26T00:24:51;93887.50;;;-1.97;89.88
56330;BME280;42236;48.058;10.632;2023-02-26T00:27:37;93880.34;;;-1.97;90.15
56330;BME280;42236;48.058;10.632;2023-02-26T00:30:23;93881.97;;;-2.01;90.28
56330;BME280;42236;48.058;10.632;2023-02-26T00:33:09;93884.66;;;-2.06;90.11
56330;BME280;42236;48.058;10.632;2023-02-26T00:39:30;93885.00;;;-2.12;89.55
56330;BME280;42236;48.058;10.632;2023-02-26T00:42:18;93885.53;;;-2.16;88.95
56330;BME280;42236;48.058;10.632;2023-02-26T00:45:04;93892.97;;;-2.18;88.46
56330;BME280;42236;48.058;10.632;2023-02-26T00:48:03;93885.59;;;-2.21;88.89
56330;BME280;42236;48.058;10.632;2023-02-26T00:50:58;93899.38;;;-2.24;89.59
56330;BME280;42236;48.058;10.632;2023-02-26T00:53:51;93900.94;;;-2.23;88.87
56330;BME280;42236;48.058;10.632;2023-02-26T00:56:38;93903.88;;;-2.24;88.64
56330;BME280;42236;48.058;10.632;2023-02-26T00:59:24;93902.28;;;-2.25;88.11
56330;BME280;42236;48.058;10.632;2023-02-26T01:02:10;93898.28;;;-2.23;87.98
56330;BME280;42236;48.058;10.632;2023-02-26T01:04:56;93905.69;;;-2.20;87.66
56330;BME280;42236;48.058;10.632;2023-02-26T01:10:31;93901.59;;;-2.36;87.42
56330;BME280;42236;48.058;10.632;2023-02-26T01:13:17;93895.22;;;-2.35;87.61
56330;BME280;42236;48.058;10.632;2023-02-26T01:16:06;93905.78;;;-2.35;88.29
56330;BME280;42236;48.058;10.632;2023-02-26T01:18:58;93908.38;;;-2.30;87.88
56330;BME280;42236;48.058;10.632;2023-02-26T01:21:54;93904.69;;;-2.29;87.72
56330;BME280;42236;48.058;10.632;2023-02-26T01:24:41;93907.81;;;-2.22;88.34
56330;BME280;42236;48.058;10.632;2023-02-26T01:27:27;93908.34;;;-2.25;88.11
56330;BME280;42236;48.058;10.632;2023-02-26T01:30:13;93909.41;;;-2.26;88.17
56330;BME280;42236;48.058;10.632;2023-02-26T01:33:11;93897.34;;;-2.32;88.24
56330;BME280;42236;48.058;10.632;2023-02-26T01:39:19;93902.00;;;-2.24;88.05
56330;BME280;42236;48.058;10.632;2023-02-26T01:42:22;93906.78;;;-2.26;87.73
56330;BME280;42236;48.058;10.632;2023-02-26T01:45:15;93908.44;;;-2.35;86.96
56330;BME280;42236;48.058;10.632;2023-02-26T01:48:10;93908.47;;;-2.40;87.57
56330;BME280;42236;48.058;10.632;2023-02-26T01:50:56;93909.00;;;-2.38;87.78
56330;BME280;42236;48.058;10.632;2023-02-26T01:53:42;93901.59;;;-2.36;87.40
56330;BME280;42236;48.058;10.632;2023-02-26T01:56:27;93905.56;;;-2.39;87.86
56330;BME280;42236;48.058;10.632;2023-02-26T01:59:15;93900.81;;;-2.37;87.93
56330;BME280;42236;48.058;10.632;2023-02-26T02:02:05;93894.72;;;-2.37;88.16
56330;BME280;42236;48.058;10.632;2023-02-26T02:04:52;93899.00;;;-2.41;88.40
56330;BME280;42236;48.058;10.632;2023-02-26T02:07:38;93907.44;;;-2.44;88.63
56330;BME280;42236;48.058;10.632;2023-02-26T02:10:24;93898.53;;;-2.48;88.76
56330;BME280;42236;48.058;10.632;2023-02-26T02:13:27;93904.84;;;-2.49;88.72
56330;BME280;42236;48.058;10.632;2023-02-26T02:19:19;93899.81;;;-2.46;87.90
56330;BME280;42236;48.058;10.632;2023-02-26T02:28:48;93913.25;;;-2.42;88.10
56330;BME280;42236;48.058;10.632;2023-02-26T02:31:43;93909.00;;;-2.38;88.18
56330;BME280;42236;48.058;10.632;2023-02-26T02:34:40;93917.44;;;-2.36;88.20
56330;BME280;42236;48.058;10.632;2023-02-26T02:37:40;93917.44;;;-2.36;87.47
56330;BME280;42236;48.058;10.632;2023-02-26T02:40:31;93923.28;;;-2.39;87.14
56330;BME280;42236;48.058;10.632;2023-02-26T02:43:30;93924.88;;;-2.43;86.34
56330;BME280;42236;48.058;10.632;2023-02-26T02:46:23;93930.16;;;-2.43;85.80
56330;BME280;42236;48.058;10.632;2023-02-26T02:49:19;93929.66;;;-2.45;85.99
56330;BME280;42236;48.058;10.632;2023-02-26T02:52:14;93923.81;;;-2.42;86.18
56330;BME280;42236;48.058;10.632;2023-02-26T02:55:05;93930.69;;;-2.41;86.38
56330;BME280;42236;48.058;10.632;2023-02-26T02:58:01;93933.84;;;-2.39;86.68
56330;BME280;42236;48.058;10.632;2023-02-26T03:00:50;93930.69;;;-2.41;86.20
56330;BME280;42236;48.058;10.632;2023-02-26T03:06:28;93938.22;;;-2.64;86.25
56330;BME280;42236;48.058;10.632;2023-02-26T03:09:14;93950.47;;;-2.73;86.69
56330;BME280;42236;48.058;10.632;2023-02-26T03:12:00;93950.22;;;-2.82;87.18
56330;BME280;42236;48.058;10.632;2023-02-26T03:14:45;93952.31;;;-2.79;87.60
56330;BME280;42236;48.058;10.632;2023-02-26T03:18:01;93958.44;;;-2.88;86.65
56330;BME280;42236;48.058;10.632;2023-02-26T03:20:57;93956.59;;;-2.83;87.48
56330;BME280;42236;48.058;10.632;2023-02-26T03:23:59;93957.66;;;-2.89;87.19
56330;BME280;42236;48.058;10.632;2023-02-26T03:29:58;93973.50;;;-2.89;87.64
56330;BME280;42236;48.058;10.632;2023-02-26T03:33:04;93973.50;;;-2.89;86.36
56330;BME280;42236;48.058;10.632;2023-02-26T03:36:10;93982.97;;;-2.88;86.40
56330;BME280;42236;48.058;10.632;2023-02-26T03:39:13;93984.34;;;-2.95;86.32
56330;BME280;42236;48.058;10.632;2023-02-26T03:44:55;93993.81;;;-2.89;86.62
56330;BME280;42236;48.058;10.632;2023-02-26T03:47:44;93989.88;;;-2.92;86.54
56330;BME280;42236;48.058;10.632;2023-02-26T03:50:37;93987.50;;;-2.93;86.13
56330;BME280;42236;48.058;10.632;2023-02-26T03:53:29;94000.19;;;-2.95;85.80
56330;BME280;42236;48.058;10.632;2023-02-26T03:56:40;93994.34;;;-2.92;85.86
56330;BME280;42236;48.058;10.632;2023-02-26T03:59:27;93995.41;;;-2.93;85.87
56330;BME280;42236;48.058;10.632;2023-02-26T04:02:18;93990.13;;;-2.93;85.64
56330;BME280;42236;48.058;10.632;2023-02-26T04:05:14;93994.41;;;-3.03;85.44
56330;BME280;42236;48.058;10.632;2023-02-26T04:08:01;94000.72;;;-2.98;85.27
56330;BME280;42236;48.058;10.632;2023-02-26T04:11:09;94011.81;;;-3.02;85.59
56330;BME280;42236;48.058;10.632;2023-02-26T04:13:55;94008.13;;;-3.01;85.23
56330;BME280;42236;48.058;10.632;2023-02-26T04:16:42;94006.81;;;-3.03;85.36
56330;BME280;42236;48.058;10.632;2023-02-26T04:19:29;94008.66;;;-3.04;85.67
56330;BME280;42236;48.058;10.632;2023-02-26T04:22:14;94011.03;;;-2.97;85.82
56330;BME280;42236;48.058;10.632;2023-02-26T04:25:00;94003.63;;;-3.00;85.57
56330;BME280;42236;48.058;10.632;2023-02-26T04:27:46;94007.56;;;-2.97;86.12
56330;BME280;42236;48.058;10.632;2023-02-26T04:30:31;94006.56;;;-3.02;86.18
56330;BME280;42236;48.058;10.632;2023-02-26T04:33:17;94010.50;;;-2.99;86.30
56330;BME280;42236;48.058;10.632;2023-02-26T04:36:03;94006.81;;;-3.03;85.81
56330;BME280;42236;48.058;10.632;2023-02-26T04:38:49;94012.13;;;-3.08;86.38
56330;BME280;42236;48.058;10.632;2023-02-26T04:41:36;94017.63;;;-3.05;86.49
56330;BME280;42236;48.058;10.632;2023-02-26T04:44:22;94014.19;;;-3.00;86.61
56330;BME280;42236;48.058;10.632;2023-02-26T04:47:08;94018.94;;;-2.97;86.06
56330;BME280;42236;48.058;10.632;2023-02-26T04:49:54;94020.25;;;-2.94;85.92
56330;BME280;42236;48.058;10.632;2023-02-26T04:52:39;94014.19;;;-3.00;85.44
56330;BME280;42236;48.058;10.632;2023-02-26T04:55:25;94019.75;;;-3.07;85.86
56330;BME280;42236;48.058;10.632;2023-02-26T04:58:10;94023.44;;;-3.08;86.77
56330;BME280;42236;48.058;10.632;2023-02-26T05:00:56;94024.53;;;-3.09;86.96
56330;BME280;42236;48.058;10.632;2023-02-26T05:03:42;94021.38;;;-3.16;86.92
56330;BME280;42236;48.058;10.632;2023-02-26T05:06:28;94030.91;;;-3.25;87.30
56330;BME280;42236;48.058;10.632;2023-02-26T05:09:13;94027.19;;;-3.24;87.58
56330;BME280;42236;48.058;10.632;2023-02-26T05:11:59;94020.91;;;-3.28;87.58
56330;BME280;42236;48.058;10.632;2023-02-26T05:14:45;94024.56;;;-3.29;87.51
56330;BME280;42236;48.058;10.632;2023-02-26T05:17:30;94022.22;;;-3.36;88.15
56330;BME280;42236;48.058;10.632;2023-02-26T05:20:16;94023.28;;;-3.37;88.27
56330;BME280;42236;48.058;10.632;2023-02-26T05:23:02;94025.69;;;-3.40;88.50
56330;BME280;42236;48.058;10.632;2023-02-26T05:25:48;94019.59;;;-3.46;88.69
56330;BME280;42236;48.058;10.632;2023-02-26T05:28:34;94023.56;;;-3.49;88.26
56330;BME280;42236;48.058;10.632;2023-02-26T05:31:21;94022.53;;;-3.48;88.14
56330;BME280;42236;48.058;10.632;2023-02-26T05:34:06;94023.56;;;-3.44;87.96
56330;BME280;42236;48.058;10.632;2023-02-26T05:36:52;94013.56;;;-3.52;87.72
56330;BME280;42236;48.058;10.632;2023-02-26T05:39:38;94020.97;;;-3.59;87.41
56330;BME280;42236;48.058;10.632;2023-02-26T05:42:25;94026.50;;;-3.66;87.38
56330;BME280;42236;48.058;10.632;2023-02-26T05:45:11;94030.47;;;-3.68;87.06
56330;BME280;42236;48.058;10.632;2023-02-26T05:47:57;94027.84;;;-3.73;87.33
56330;BME280;42236;48.058;10.632;2023-02-26T05:50:43;94029.41;;;-3.72;87.33
56330;BME280;42236;48.058;10.632;2023-02-26T05:53:28;94036.53;;;-3.78;87.54
56330;BME280;42236;48.058;10.632;2023-02-26T05:56:14;94038.91;;;-3.76;87.69
56330;BME280;42236;48.058;10.632;2023-02-26T05:59:00;94043.38;;;-3.82;87.44
56330;BME280;42236;48.058;10.632;2023-02-26T06:01:45;94045.53;;;-3.84;87.33
56330;BME280;42236;48.058;10.632;2023-02-26T06:04:31;94043.69;;;-3.89;87.37
56330;BME280;42236;48.058;10.632;2023-02-26T06:07:17;94054.72;;;-3.97;87.65
56330;BME280;42236;48.058;10.632;2023-02-26T06:10:04;94052.63;;;-4.00;87.66
56330;BME280;42236;48.058;10.632;2023-02-26T06:12:50;94056.84;;;-4.09;87.42
56330;BME280;42236;48.058;10.632;2023-02-26T06:15:35;94062.63;;;-4.12;87.49
56330;BME280;42236;48.058;10.632;2023-02-26T06:18:21;94064.47;;;-4.18;87.49
56330;BME280;42236;48.058;10.632;2023-02-26T06:21:07;94068.44;;;-4.20;87.62
56330;BME280;42236;48.058;10.632;2023-02-26T06:23:53;94074.72;;;-4.21;87.43
56330;BME280;42236;48.058;10.632;2023-02-26T06:26:39;94083.94;;;-4.24;87.65
56330;BME280;42236;48.058;10.632;2023-02-26T06:29:24;94096.88;;;-4.17;87.78
56330;BME280;42236;48.058;10.632;2023-02-26T06:32:10;94099.50;;;-4.12;87.81
56330;BME280;42236;48.058;10.632;2023-02-26T06:34:56;94100.53;;;-4.18;88.12
56330;BME280;42236;48.058;10.632;2023-02-26T06:37:42;94110.03;;;-4.17;88.29
56330;BME280;42236;48.058;10.632;2023-02-26T06:40:27;94118.47;;;-4.10;88.02
56330;BME280;42236;48.058;10.632;2023-02-26T06:43:13;94112.13;;;-4.09;88.09
56330;BME280;42236;48.058;10.632;2023-02-26T06:45:59;94120.59;;;-4.07;88.06
56330;BME280;42236;48.058;10.632;2023-02-26T06:48:44;94125.84;;;-4.02;88.24
56330;BME280;42236;48.058;10.632;2023-02-26T06:51:30;94133.50;;;-3.90;87.80
56330;BME280;42236;48.058;10.632;2023-02-26T06:54:16;94138.53;;;-3.83;87.37
56330;BME280;42236;48.058;10.632;2023-02-26T06:57:02;94142.72;;;-3.72;87.03
56330;BME280;42236;48.058;10.632;2023-02-26T06:59:48;94150.63;;;-3.72;86.64
56330;BME280;42236;48.058;10.632;2023-02-26T07:02:35;94152.50;;;-3.68;86.51
56330;BME280;42236;48.058;10.632;2023-02-26T07:05:20;94152.75;;;-3.59;86.43
56330;BME280;42236;48.058;10.632;2023-02-26T07:08:06;94154.88;;;-3.56;85.86
56330;BME280;42236;48.058;10.632;2023-02-26T07:10:53;94164.38;;;-3.50;85.90
56330;BME280;42236;48.058;10.632;2023-02-26T07:13:38;94155.94;;;-3.47;85.45
56330;BME280;42236;48.058;10.632;2023-02-26T07:16:24;94170.44;;;-3.54;85.25
56330;BME280;42236;48.058;10.632;2023-02-26T07:19:09;94178.34;;;-3.59;85.09
56330;BME280;42236;48.058;10.632;2023-02-26T07:21:55;94183.34;;;-3.58;85.35
56330;BME280;42236;48.058;10.632;2023-02-26T07:24:41;94178.59;;;-3.51;85.31
56330;BME280;42236;48.058;10.632;2023-02-26T07:27:27;94190.75;;;-3.60;84.56
56330;BME280;42236;48.058;10.632;2023-02-26T07:30:14;94203.63;;;-3.74;85.48
56330;BME280;42236;48.058;10.632;2023-02-26T07:33:00;94205.47;;;-3.64;85.86
56330;BME280;42236;48.058;10.632;2023-02-26T07:35:46;94205.78;;;-3.50;85.58
56330;BME280;42236;48.058;10.632;2023-02-26T07:38:32;94218.16;;;-3.40;85.10
56330;BME280;42236;48.058;10.632;2023-02-26T07:41:18;94219.47;;;-3.28;84.72
56330;BME280;42236;48.058;10.632;2023-02-26T07:44:03;94223.97;;;-3.18;84.08
56330;BME280;42236;48.058;10.632;2023-02-26T07:46:49;94214.47;;;-3.14;83.65
56330;BME280;42236;48.058;10.632;2023-02-26T07:49:35;94214.19;;;-2.97;83.64
56330;BME280;42236;48.058;10.632;2023-02-26T07:52:21;94214.97;;;-2.86;83.00
56330;BME280;42236;48.058;10.632;2023-02-26T07:55:08;94213.38;;;-2.82;82.54
56330;BME280;42236;48.058;10.632;2023-02-26T07:57:54;94215.50;;;-2.84;82.88
56330;BME280;42236;48.058;10.632;2023-02-26T08:00:40;94217.34;;;-2.85;82.51
56330;BME280;42236;48.058;10.632;2023-02-26T08:03:25;94212.06;;;-2.95;81.23
56330;BME280;42236;48.058;10.632;2023-02-26T08:06:11;94208.63;;;-2.90;82.09
56330;BME280;42236;48.058;10.632;2023-02-26T08:08:56;94203.34;;;-2.85;81.48
56330;BME280;42236;48.058;10.632;2023-02-26T08:11:42;94206.00;;;-2.95;80.68
56330;BME280;42236;48.058;10.632;2023-02-26T08:14:28;94203.63;;;-2.97;81.86
56330;BME280;42236;48.058;10.632;2023-02-26T08:17:13;94214.97;;;-2.96;82.17
56330;BME280;42236;48.058;10.632;2023-02-26T08:19:59;94205.47;;;-3.03;81.85
56330;BME280;42236;48.058;10.632;2023-02-26T08:22:45;94222.63;;;-2.95;81.75
56330;BME280;42236;48.058;10.632;2023-02-26T08:25:31;94226.31;;;-2.86;81.05
56330;BME280;42236;48.058;10.632;2023-02-26T08:28:16;94221.28;;;-2.92;80.20
56330;BME280;42236;48.058;10.632;2023-02-26T08:31:02;94226.56;;;-2.92;81.15
56330;BME280;42236;48.058;10.632;2023-02-26T08:33:48;94228.66;;;-2.74;81.68
56330;BME280;42236;48.058;10.632;2023-02-26T08:36:34;94220.19;;;-2.55;81.19
56330;BME280;42236;48.058;10.632;2023-02-26T08:39:20;94228.81;;;-2.34;80.75
56330;BME280;42236;48.058;10.632;2023-02-26T08:42:07;94223.63;;;-2.60;78.19
56330;BME280;42236;48.058;10.632;2023-02-26T08:44:53;94229.97;;;-2.66;79.31
56330;BME280;42236;48.058;10.632;2023-02-26T08:47:38;94234.97;;;-2.60;79.81
56330;BME280;42236;48.058;10.632;2023-02-26T08:50:30;94228.38;;;-2.57;79.46
56330;BME280;42236;48.058;10.632;2023-02-26T08:53:15;94230.94;;;-2.42;79.20
56330;BME280;42236;48.058;10.632;2023-02-26T08:56:01;94226.25;;;-2.55;77.40
56330;BME280;42236;48.058;10.632;2023-02-26T08:58:47;94229.66;;;-2.44;79.01
56330;BME280;42236;48.058;10.632;2023-02-26T09:01:33;94245.00;;;-2.46;78.58
56330;BME280;42236;48.058;10.632;2023-02-26T09:04:19;94243.13;;;-2.41;78.61
56330;BME280;42236;48.058;10.632;2023-02-26T09:07:05;94247.13;;;-2.53;77.18
56330;BME280;42236;48.058;10.632;2023-02-26T09:09:50;94246.84;;;-2.52;79.00
56330;BME280;42236;48.058;10.632;2023-02-26T09:12:36;94250.81;;;-2.60;78.85
56330;BME280;42236;48.058;10.632;2023-02-26T09:15:22;94247.66;;;-2.62;79.14
56330;BME280;42236;48.058;10.632;2023-02-26T09:18:08;94248.13;;;-2.44;79.27
56330;BME280;42236;48.058;10.632;2023-02-26T09:20:59;94243.84;;;-2.25;79.00
56330;BME280;42236;48.058;10.632;2023-02-26T09:23:45;94257.56;;;-2.18;78.86
56330;BME280;42236;48.058;10.632;2023-02-26T09:26:30;94266.88;;;-2.36;79.08
56330;BME280;42236;48.058;10.632;2023-02-26T09:29:16;94262.44;;;-2.55;78.62
56330;BME280;42236;48.058;10.632;2023-02-26T09:32:02;94272.22;;;-2.56;79.64
56330;BME280;42236;48.058;10.632;2023-02-26T09:34:52;94270.09;;;-2.49;79.56
56330;BME280;42236;48.058;10.632;2023-02-26T09:37:38;94284.84;;;-2.38;79.45
56330;BME280;42236;48.058;10.632;2023-02-26T09:40:29;94272.94;;;-2.35;78.42
56330;BME280;42236;48.058;10.632;2023-02-26T09:47:08;94286.97;;;-2.45;79.54
56330;BME280;42236;48.058;10.632;2023-02-26T09:50:06;94280.09;;;-2.46;79.86
56330;BME280;42236;48.058;10.632;2023-02-26T09:53:06;94285.41;;;-2.51;77.84
56330;BME280;42236;48.058;10.632;2023-02-26T09:56:04;94292.56;;;-2.87;78.81
56330;BME280;42236;48.058;10.632;2023-02-26T09:58:51;94304.44;;;-2.80;79.77
56330;BME280;42236;48.058;10.632;2023-02-26T10:01:59;94308.94;;;-2.80;79.03
56330;BME280;42236;48.058;10.632;2023-02-26T10:04:50;94301.00;;;-2.80;80.33
56330;BME280;42236;48.058;10.632;2023-02-26T10:07:42;94295.44;;;-2.79;80.19
56330;BME280;42236;48.058;10.632;2023-02-26T10:13:36;94288.84;;;-2.66;80.22
56330;BME280;42236;48.058;10.632;2023-02-26T10:16:26;94296.75;;;-2.71;80.59
56330;BME280;42236;48.058;10.632;2023-02-26T10:19:17;94292.53;;;-2.62;79.99
56330;BME280;42236;48.058;10.632;2023-02-26T10:22:23;94301.25;;;-2.71;80.17
56330;BME280;42236;48.058;10.632;2023-02-26T10:25:14;94298.34;;;-2.70;81.05
56330;BME280;42236;48.058;10.632;2023-02-26T10:34:41;94287.28;;;-2.87;81.37
56330;BME280;42236;48.058;10.632;2023-02-26T10:37:48;94284.63;;;-2.97;82.20
56330;BME280;42236;48.058;10.632;2023-02-26T10:40:43;94285.69;;;-2.98;83.18
56330;BME280;42236;48.058;10.632;2023-02-26T10:43:34;94290.72;;;-2.92;83.00
56330;BME280;42236;48.058;10.632;2023-02-26T10:49:52;94278.03;;;-2.80;83.41
56330;BME280;42236;48.058;10.632;2023-02-26T10:52:38;94279.59;;;-2.58;82.96
56330;BME280;42236;48.058;10.632;2023-02-26T10:55:34;94287.25;;;-2.57;82.68
56330;BME280;42236;48.058;10.632;2023-02-26T10:58:24;94273.00;;;-2.61;82.16
56330;BME280;42236;48.058;10.632;2023-02-26T11:01:22;94280.91;;;-2.45;80.86
56330;BME280;42236;48.058;10.632;2023-02-26T11:04:16;94285.94;;;-2.64;81.10
56330;BME280;42236;48.058;10.632;2023-02-26T11:07:03;94297.56;;;-2.65;81.82
56330;BME280;42236;48.058;10.632;2023-02-26T11:09:50;94291.25;;;-2.85;82.00
56330;BME280;42236;48.058;10.632;2023-02-26T11:12:36;94304.16;;;-2.83;83.18
56330;BME280;42236;48.058;10.632;2023-02-26T11:15:24;94309.16;;;-2.71;83.34
56330;BME280;42236;48.058;10.632;2023-02-26T11:18:18;94303.09;;;-2.46;83.06
56330;BME280;42236;48.058;10.632;2023-02-26T11:21:05;94317.88;;;-2.50;82.09
56330;BME280;42236;48.058;10.632;2023-02-26T11:23:57;94317.09;;;-2.51;82.11
56330;BME280;42236;48.058;10.632;2023-02-26T11:26:50;94312.56;;;-2.40;82.21
56330;BME280;42236;48.058;10.632;2023-02-26T11:29:40;94316.22;;;-2.16;81.86
56330;BME280;42236;48.058;10.632;2023-02-26T11:32:33;94317.22;;;-1.96;80.49
56330;BME280;42236;48.058;10.632;2023-02-26T11:35:22;94329.31;;;-1.80;80.49
56330;BME280;42236;48.058;10.632;2023-02-26T11:38:15;94323.81;;;-1.83;79.52
56330;BME280;42236;48.058;10.632;2023-02-26T11:41:04;94320.13;;;-1.92;79.42
56330;BME280;42236;48.058;10.632;2023-02-26T11:44:06;94322.75;;;-1.87;79.67
56330;BME280;42236;48.058;10.632;2023-02-26T11:46:56;94325.94;;;-1.90;79.33
56330;BME280;42236;48.058;10.632;2023-02-26T11:49:45;94322.16;;;-1.69;79.92
56330;BME280;42236;48.058;10.632;2023-02-26T11:52:39;94323.00;;;-1.79;78.18
56330;BME280;42236;48.058;10.632;2023-02-26T11:55:35;94316.53;;;-1.52;79.78
56330;BME280;42236;48.058;10.632;2023-02-26T11:58:23;94310.19;;;-1.56;78.01
56330;BME280;42236;48.058;10.632;2023-02-26T12:01:12;94309.19;;;-1.70;78.59
56330;BME280;42236;48.058;10.632;2023-02-26T12:04:00;94317.06;;;-1.55;79.77
56330;BME280;42236;48.058;10.632;2023-02-26T12:06:49;94313.88;;;-1.52;77.92
56330;BME280;42236;48.058;10.632;2023-02-26T12:09:35;94334.53;;;-1.64;78.24
56330;BME280;42236;48.058;10.632;2023-02-26T12:13:16;94327.19;;;-1.73;79.55
56330;BME280;42236;48.058;10.632;2023-02-26T12:15:55;94324.88;;;-1.89;78.83
56330;BME280;42236;48.058;10.632;2023-02-26T12:31:01;94315.97;;;-1.49;76.97
56330;BME280;42236;48.058;10.632;2023-02-26T12:34:20;94315.72;;;-1.53;78.21
56330;BME280;42236;48.058;10.632;2023-02-26T12:43:36;94288.91;;;-1.36;77.53
56330;BME280;42236;48.058;10.632;2023-02-26T12:46:57;94289.91;;;-1.26;78.14
56330;BME280;42236;48.058;10.632;2023-02-26T12:49:53;94309.47;;;-1.22;78.38
56330;BME280;42236;48.058;10.632;2023-02-26T13:08:41;94308.28;;;-1.01;78.99
56330;BME280;42236;48.058;10.632;2023-02-26T13:19:04;94307.81;;;-1.08;78.65
56330;BME280;42236;48.058;10.632;2023-02-26T13:21:24;94307.91;;;-1.29;78.72
56330;BME280;42236;48.058;10.632;2023-02-26T13:24:38;94308.75;;;-1.33;79.21
56330;BME280;42236;48.058;10.632;2023-02-26T13:27:36;94306.25;;;-1.14;78.12
56330;BME280;42236;48.058;10.632;2023-02-26T13:30:32;94306.50;;;-1.11;76.39
56330;BME280;42236;48.058;10.632;2023-02-26T13:33:22;94310.38;;;-0.98;77.47
56330;BME280;42236;48.058;10.632;2023-02-26T13:36:09;94308.25;;;-0.96;77.22
56330;BME280;42236;48.058;10.632;2023-02-26T13:39:18;94307.25;;;-1.05;77.98
56330;BME280;42236;48.058;10.632;2023-02-26T14:02:56;94312.75;;;-0.62;79.90
56330;BME280;42236;48.058;10.632;2023-02-26T14:14:18;94334.41;;;-1.34;78.73
56330;BME280;42236;48.058;10.632;2023-02-26T14:22:40;94326.09;;;-1.61;76.65
56330;BME280;42236;48.058;10.632;2023-02-26T14:25:36;94340.13;;;-1.66;77.13
56330;BME280;42236;48.058;10.632;2023-02-26T14:31:20;94337.19;;;-1.59;76.92
56330;BME280;42236;48.058;10.632;2023-02-26T14:34:14;94346.63;;;-1.43;76.73
56330;BME280;42236;48.058;10.632;2023-02-26T14:37:03;94333.84;;;-1.31;75.22
56330;BME280;42236;48.058;10.632;2023-02-26T14:39:57;94324.81;;;-1.19;75.37
56330;BME280;42236;48.058;10.632;2023-02-26T14:42:58;94343.03;;;-1.13;75.02
56330;BME280;42236;48.058;10.632;2023-02-26T14:45:45;94334.78;;;-1.06;74.70
56330;BME280;42236;48.058;10.632;2023-02-26T14:48:32;94331.63;;;-1.08;73.70
56330;BME280;42236;48.058;10.632;2023-02-26T14:54:45;94331.13;;;-1.15;72.98
56330;BME280;42236;48.058;10.632;2023-02-26T14:57:44;94333.97;;;-1.07;72.62
56330;BME280;42236;48.058;10.632;2023-02-26T15:00:53;94325.13;;;-0.87;71.94
56330;BME280;42236;48.058;10.632;2023-02-26T15:04:06;94325.25;;;-0.68;73.03
56330;BME280;42236;48.058;10.632;2023-02-26T15:07:14;94325.06;;;-0.47;71.63
56330;BME280;42236;48.058;10.632;2023-02-26T15:16:27;94344.03;;;-0.35;72.19
56330;BME280;42236;48.058;10.632;2023-02-26T15:20:05;94357.34;;;-0.40;71.94
56330;BME280;42236;48.058;10.632;2023-02-26T15:23:16;94352.63;;;-0.82;69.70
56330;BME280;42236;48.058;10.632;2023-02-26T15:26:07;94365.91;;;-0.88;70.27
56330;BME280;42236;48.058;10.632;2023-02-26T15:28:58;94367.84;;;-0.98;69.42
56330;BME280;42236;48.058;10.632;2023-02-26T15:31:56;94364.97;;;-1.07;68.62
56330;BME280;42236;48.058;10.632;2023-02-26T15:34:46;94370.22;;;-1.02;69.25
56330;BME280;42236;48.058;10.632;2023-02-26T15:37:34;94373.94;;;-1.03;68.57
56330;BME280;42236;48.058;10.632;2023-02-26T15:40:20;94381.84;;;-0.98;68.50
56330;BME280;42236;48.058;10.632;2023-02-26T15:43:07;94385.50;;;-0.89;69.59
56330;BME280;42236;48.058;10.632;2023-02-26T15:45:56;94380.78;;;-0.97;66.15
56330;BME280;42236;48.058;10.632;2023-02-26T15:48:43;94394.50;;;-0.84;67.62
56330;BME280;42236;48.058;10.632;2023-02-26T15:51:29;94389.22;;;-0.84;66.36
56330;BME280;42236;48.058;10.632;2023-02-26T15:54:18;94397.47;;;-0.96;65.19
56330;BME280;42236;48.058;10.632;2023-02-26T15:57:05;94398.75;;;-0.89;65.85
56330;BME280;42236;48.058;10.632;2023-02-26T15:59:54;94399.31;;;-0.92;66.81
56330;BME280;42236;48.058;10.632;2023-02-26T16:02:44;94403.56;;;-0.96;67.54
56330;BME280;42236;48.058;10.632;2023-02-26T16:05:30;94400.69;;;-1.04;69.14
56330;BME280;42236;48.058;10.632;2023-02-26T16:08:16;94404.50;;;-1.31;68.91
56330;BME280;42236;48.058;10.632;2023-02-26T16:11:04;94403.75;;;-1.37;69.22
56330;BME280;42236;48.058;10.632;2023-02-26T16:13:51;94412.78;;;-1.48;69.53
56330;BME280;42236;48.058;10.632;2023-02-26T16:16:46;94415.97;;;-1.51;67.68
56330;BME280;42236;48.058;10.632;2023-02-26T16:19:37;94423.34;;;-1.48;69.05
56330;BME280;42236;48.058;10.632;2023-02-26T16:22:32;94425.50;;;-1.60;69.13
56330;BME280;42236;48.058;10.632;2023-02-26T16:25:27;94434.53;;;-1.61;69.52
56330;BME280;42236;48.058;10.632;2023-02-26T16:28:27;94455.69;;;-1.61;70.75
56330;BME280;42236;48.058;10.632;2023-02-26T16:31:21;94451.44;;;-1.62;71.27
56330;BME280;42236;48.058;10.632;2023-02-26T16:34:27;94467.03;;;-1.61;71.67
56330;BME280;42236;48.058;10.632;2023-02-26T16:37:31;94465.19;;;-1.65;72.40
56330;BME280;42236;48.058;10.632;2023-02-26T16:40:23;94455.94;;;-1.68;72.24
56330;BME280;42236;48.058;10.632;2023-02-26T16:43:30;94464.69;;;-1.73;73.32
56330;BME280;42236;48.058;10.632;2023-02-26T16:46:38;94466.00;;;-1.75;73.49
56330;BME280;42236;48.058;10.632;2023-02-26T16:49:31;94470.53;;;-1.86;74.81
56330;BME280;42236;48.058;10.632;2023-02-26T16:52:21;94483.75;;;-1.86;75.06
56330;BME280;42236;48.058;10.632;2023-02-26T16:55:10;94488.22;;;-1.91;75.47
56330;BME280;42236;48.058;10.632;2023-02-26T16:58:05;94491.13;;;-2.03;76.28
56330;BME280;42236;48.058;10.632;2023-02-26T17:00:56;94498.53;;;-2.10;76.30
56330;BME280;42236;48.058;10.632;2023-02-26T17:03:56;94496.44;;;-2.13;76.46
56330;BME280;42236;48.058;10.632;2023-02-26T17:06:46;94491.16;;;-2.13;76.69